sensor_id;sensor_type;location;lat;lon;timestamp;P1;durP1;ratioP1;P2;durP2;ratioP2
45848;SDS011;31567;54.600;9.842;2024-02-15T00:01:18;23.85;;;8.25;;
45848;SDS011;31567;54.600;9.842;2024-02-15T00:04:58;34.88;;;8.48;;
45848;SDS011;31567;54.600;9.842;2024-02-15T00:08:37;63.25;;;7.13;;
45848;SDS011;31567;54.600;9.842;2024-02-15T00:12:17;119.38;;;8.25;;
45848;SDS011;31567;54.600;9.842;2024-02-15T00:15:56;106.72;;;7.80;;
45848;SDS011;31567;54.600;9.842;2024-02-15T00:19:36;108.72;;;8.40;;
45848;SDS011;31567;54.600;9.842;2024-02-15T00:23:15;66.65;;;7.25;;
45848;SDS011;31567;54.600;9.842;2024-02-15T00:26:55;115.65;;;8.00;;
45848;SDS011;31567;54.600;9.842;2024-02-15T00:30:35;32.30;;;6.88;;
45848;SDS011;31567;54.600;9.842;2024-02-15T00:34:15;114.68;;;8.10;;
45848;SDS011;31567;54.600;9.842;2024-02-15T00:37:55;168.95;;;9.02;;
45848;SDS011;31567;54.600;9.842;2024-02-15T00:41:36;184.38;;;8.98;;
45848;SDS011;31567;54.600;9.842;2024-02-15T00:45:16;18.92;;;7.10;;
45848;SDS011;31567;54.600;9.842;2024-02-15T00:48:55;20.60;;;7.60;;
45848;SDS011;31567;54.600;9.842;2024-02-15T00:52:35;22.13;;;7.13;;
45848;SDS011;31567;54.600;9.842;2024-02-15T00:56:15;22.05;;;6.85;;
45848;SDS011;31567;54.600;9.842;2024-02-15T00:59:54;27.45;;;7.22;;
45848;SDS011;31567;54.600;9.842;2024-02-15T01:03:34;35.97;;;6.90;;
45848;SDS011;31567;54.600;9.842;2024-02-15T01:07:14;29.77;;;8.10;;
45848;SDS011;31567;54.600;9.842;2024-02-15T01:10:54;51.63;;;8.02;;
45848;SDS011;31567;54.600;9.842;2024-02-15T01:14:33;29.83;;;7.07;;
45848;SDS011;31567;54.600;9.842;2024-02-15T01:18:13;44.22;;;7.90;;
45848;SDS011;31567;54.600;9.842;2024-02-15T01:21:53;43.72;;;8.27;;
45848;SDS011;31567;54.600;9.842;2024-02-15T01:25:32;26.77;;;9.32;;
45848;SDS011;31567;54.600;9.842;2024-02-15T01:29:12;25.35;;;9.10;;
45848;SDS011;31567;54.600;9.842;2024-02-15T01:32:52;25.60;;;9.55;;
45848;SDS011;31567;54.600;9.842;2024-02-15T01:36:31;33.05;;;10.50;;
45848;SDS011;31567;54.600;9.842;2024-02-15T01:40:11;29.40;;;11.02;;
45848;SDS011;31567;54.600;9.842;2024-02-15T01:43:52;30.92;;;11.07;;
45848;SDS011;31567;54.600;9.842;2024-02-15T01:47:31;31.27;;;10.80;;
45848;SDS011;31567;54.600;9.842;2024-02-15T01:51:11;33.13;;;11.27;;
45848;SDS011;31567;54.600;9.842;2024-02-15T01:54:53;31.42;;;12.30;;
45848;SDS011;31567;54.600;9.842;2024-02-15T01:58:33;29.60;;;11.43;;
45848;SDS011;31567;54.600;9.842;2024-02-15T02:02:14;37.47;;;12.27;;
45848;SDS011;31567;54.600;9.842;2024-02-15T02:05:57;30.45;;;12.20;;
45848;SDS011;31567;54.600;9.842;2024-02-15T02:09:38;39.53;;;13.15;;
45848;SDS011;31567;54.600;9.842;2024-02-15T02:13:18;43.50;;;13.82;;
45848;SDS011;31567;54.600;9.842;2024-02-15T02:17:10;36.63;;;12.35;;
45848;SDS011;31567;54.600;9.842;2024-02-15T02:20:50;47.80;;;13.88;;
45848;SDS011;31567;54.600;9.842;2024-02-15T02:24:29;36.47;;;13.00;;
45848;SDS011;31567;54.600;9.842;2024-02-15T02:28:16;36.67;;;12.00;;
45848;SDS011;31567;54.600;9.842;2024-02-15T02:31:56;35.28;;;12.38;;
45848;SDS011;31567;54.600;9.842;2024-02-15T02:35:36;36.45;;;13.98;;
45848;SDS011;31567;54.600;9.842;2024-02-15T02:39:15;38.42;;;12.30;;
45848;SDS011;31567;54.600;9.842;2024-02-15T02:42:56;37.13;;;13.70;;
45848;SDS011;31567;54.600;9.842;2024-02-15T02:46:38;35.42;;;12.55;;
45848;SDS011;31567;54.600;9.842;2024-02-15T02:50:17;37.13;;;12.93;;
45848;SDS011;31567;54.600;9.842;2024-02-15T02:53:58;37.45;;;12.40;;
45848;SDS011;31567;54.600;9.842;2024-02-15T02:57:38;35.03;;;10.77;;
45848;SDS011;31567;54.600;9.842;2024-02-15T03:01:17;34.10;;;11.07;;
45848;SDS011;31567;54.600;9.842;2024-02-15T03:04:57;95.22;;;10.38;;
45848;SDS011;31567;54.600;9.842;2024-02-15T03:08:40;152.60;;;11.65;;
45848;SDS011;31567;54.600;9.842;2024-02-15T03:12:20;26.73;;;8.23;;
45848;SDS011;31567;54.600;9.842;2024-02-15T03:15:59;25.77;;;10.10;;
45848;SDS011;31567;54.600;9.842;2024-02-15T03:19:39;25.30;;;9.10;;
45848;SDS011;31567;54.600;9.842;2024-02-15T03:23:19;17.45;;;8.23;;
45848;SDS011;31567;54.600;9.842;2024-02-15T03:26:59;19.15;;;8.70;;
45848;SDS011;31567;54.600;9.842;2024-02-15T03:30:39;15.10;;;8.27;;
45848;SDS011;31567;54.600;9.842;2024-02-15T03:34:18;17.08;;;8.60;;
45848;SDS011;31567;54.600;9.842;2024-02-15T03:38:00;14.57;;;8.25;;
45848;SDS011;31567;54.600;9.842;2024-02-15T03:41:40;15.32;;;8.63;;
45848;SDS011;31567;54.600;9.842;2024-02-15T03:45:19;17.88;;;8.82;;
45848;SDS011;31567;54.600;9.842;2024-02-15T03:49:00;20.30;;;9.50;;
45848;SDS011;31567;54.600;9.842;2024-02-15T03:52:40;17.42;;;8.27;;
45848;SDS011;31567;54.600;9.842;2024-02-15T03:56:20;15.80;;;8.27;;
45848;SDS011;31567;54.600;9.842;2024-02-15T04:00:02;22.08;;;9.07;;
45848;SDS011;31567;54.600;9.842;2024-02-15T04:03:43;26.60;;;9.55;;
45848;SDS011;31567;54.600;9.842;2024-02-15T04:07:23;25.33;;;9.65;;
45848;SDS011;31567;54.600;9.842;2024-02-15T04:11:05;22.98;;;9.48;;
45848;SDS011;31567;54.600;9.842;2024-02-15T04:14:46;26.65;;;9.52;;
45848;SDS011;31567;54.600;9.842;2024-02-15T04:18:26;23.20;;;9.70;;
45848;SDS011;31567;54.600;9.842;2024-02-15T04:22:05;23.35;;;9.07;;
45848;SDS011;31567;54.600;9.842;2024-02-15T04:25:46;19.25;;;7.80;;
45848;SDS011;31567;54.600;9.842;2024-02-15T04:29:30;17.58;;;7.70;;
45848;SDS011;31567;54.600;9.842;2024-02-15T04:33:09;16.58;;;7.18;;
45848;SDS011;31567;54.600;9.842;2024-02-15T04:36:49;13.77;;;6.43;;
45848;SDS011;31567;54.600;9.842;2024-02-15T04:40:29;12.38;;;6.30;;
45848;SDS011;31567;54.600;9.842;2024-02-15T04:44:09;13.13;;;6.45;;
45848;SDS011;31567;54.600;9.842;2024-02-15T04:47:50;17.85;;;7.55;;
45848;SDS011;31567;54.600;9.842;2024-02-15T04:51:31;19.85;;;8.77;;
45848;SDS011;31567;54.600;9.842;2024-02-15T04:55:11;28.48;;;9.85;;
45848;SDS011;31567;54.600;9.842;2024-02-15T04:58:51;36.50;;;10.73;;
45848;SDS011;31567;54.600;9.842;2024-02-15T05:02:31;41.15;;;11.55;;
45848;SDS011;31567;54.600;9.842;2024-02-15T05:06:10;60.05;;;12.75;;
45848;SDS011;31567;54.600;9.842;2024-02-15T05:09:51;88.50;;;15.05;;
45848;SDS011;31567;54.600;9.842;2024-02-15T05:13:32;76.85;;;15.38;;
45848;SDS011;31567;54.600;9.842;2024-02-15T05:17:11;109.95;;;15.65;;
45848;SDS011;31567;54.600;9.842;2024-02-15T05:20:51;87.43;;;16.13;;
45848;SDS011;31567;54.600;9.842;2024-02-15T05:24:31;141.02;;;17.65;;
45848;SDS011;31567;54.600;9.842;2024-02-15T05:28:10;111.25;;;15.43;;
45848;SDS011;31567;54.600;9.842;2024-02-15T05:31:51;121.97;;;16.30;;
45848;SDS011;31567;54.600;9.842;2024-02-15T05:35:33;130.45;;;18.23;;
45848;SDS011;31567;54.600;9.842;2024-02-15T05:39:15;138.88;;;18.13;;
45848;SDS011;31567;54.600;9.842;2024-02-15T05:42:57;106.30;;;18.90;;
45848;SDS011;31567;54.600;9.842;2024-02-15T05:46:37;135.18;;;19.55;;
45848;SDS011;31567;54.600;9.842;2024-02-15T05:50:18;124.85;;;18.65;;
45848;SDS011;31567;54.600;9.842;2024-02-15T05:54:02;96.32;;;17.95;;
45848;SDS011;31567;54.600;9.842;2024-02-15T05:57:45;112.63;;;17.95;;
45848;SDS011;31567;54.600;9.842;2024-02-15T06:01:25;357.38;;;21.83;;
45848;SDS011;31567;54.600;9.842;2024-02-15T06:05:05;137.45;;;17.48;;
45848;SDS011;31567;54.600;9.842;2024-02-15T06:08:46;119.82;;;17.08;;
45848;SDS011;31567;54.600;9.842;2024-02-15T06:12:26;122.93;;;16.80;;
45848;SDS011;31567;54.600;9.842;2024-02-15T06:16:06;167.25;;;18.75;;
45848;SDS011;31567;54.600;9.842;2024-02-15T06:19:48;136.43;;;19.33;;
45848;SDS011;31567;54.600;9.842;2024-02-15T06:23:28;177.07;;;19.10;;
45848;SDS011;31567;54.600;9.842;2024-02-15T06:27:07;135.23;;;18.85;;
45848;SDS011;31567;54.600;9.842;2024-02-15T06:30:47;174.50;;;20.33;;
45848;SDS011;31567;54.600;9.842;2024-02-15T06:34:45;141.93;;;19.17;;
45848;SDS011;31567;54.600;9.842;2024-02-15T06:38:43;120.80;;;18.52;;
45848;SDS011;31567;54.600;9.842;2024-02-15T06:42:41;103.13;;;17.80;;
45848;SDS011;31567;54.600;9.842;2024-02-15T06:46:21;112.93;;;19.17;;
45848;SDS011;31567;54.600;9.842;2024-02-15T06:50:00;119.53;;;20.08;;
45848;SDS011;31567;54.600;9.842;2024-02-15T06:53:40;98.47;;;18.63;;
45848;SDS011;31567;54.600;9.842;2024-02-15T06:57:20;95.18;;;19.55;;
45848;SDS011;31567;54.600;9.842;2024-02-15T07:00:59;82.28;;;17.95;;
45848;SDS011;31567;54.600;9.842;2024-02-15T07:04:39;332.05;;;21.35;;
45848;SDS011;31567;54.600;9.842;2024-02-15T07:08:19;184.70;;;19.85;;
45848;SDS011;31567;54.600;9.842;2024-02-15T07:11:58;295.63;;;20.95;;
45848;SDS011;31567;54.600;9.842;2024-02-15T07:15:38;285.55;;;16.75;;
45848;SDS011;31567;54.600;9.842;2024-02-15T07:19:18;276.48;;;16.50;;
45848;SDS011;31567;54.600;9.842;2024-02-15T07:22:57;155.82;;;15.15;;
45848;SDS011;31567;54.600;9.842;2024-02-15T07:26:37;183.55;;;16.63;;
45848;SDS011;31567;54.600;9.842;2024-02-15T07:30:16;218.60;;;21.00;;
45848;SDS011;31567;54.600;9.842;2024-02-15T07:33:56;231.77;;;18.80;;
45848;SDS011;31567;54.600;9.842;2024-02-15T07:37:36;225.00;;;20.13;;
45848;SDS011;31567;54.600;9.842;2024-02-15T07:41:22;283.10;;;17.77;;
45848;SDS011;31567;54.600;9.842;2024-02-15T07:45:01;308.45;;;18.75;;
45848;SDS011;31567;54.600;9.842;2024-02-15T07:48:41;160.98;;;17.15;;
45848;SDS011;31567;54.600;9.842;2024-02-15T07:52:24;97.35;;;17.65;;
45848;SDS011;31567;54.600;9.842;2024-02-15T07:56:03;76.70;;;17.45;;
45848;SDS011;31567;54.600;9.842;2024-02-15T07:59:44;85.40;;;19.33;;
45848;SDS011;31567;54.600;9.842;2024-02-15T08:03:24;93.72;;;18.17;;
45848;SDS011;31567;54.600;9.842;2024-02-15T08:07:03;194.93;;;18.20;;
45848;SDS011;31567;54.600;9.842;2024-02-15T08:10:43;250.27;;;18.55;;
45848;SDS011;31567;54.600;9.842;2024-02-15T08:14:24;246.77;;;20.65;;
45848;SDS011;31567;54.600;9.842;2024-02-15T08:18:03;130.38;;;20.48;;
45848;SDS011;31567;54.600;9.842;2024-02-15T08:21:44;92.15;;;19.77;;
45848;SDS011;31567;54.600;9.842;2024-02-15T08:25:29;74.97;;;20.00;;
45848;SDS011;31567;54.600;9.842;2024-02-15T08:29:10;68.35;;;19.20;;
45848;SDS011;31567;54.600;9.842;2024-02-15T08:32:50;64.13;;;18.90;;
45848;SDS011;31567;54.600;9.842;2024-02-15T08:36:32;59.33;;;18.70;;
45848;SDS011;31567;54.600;9.842;2024-02-15T08:40:11;53.83;;;17.27;;
45848;SDS011;31567;54.600;9.842;2024-02-15T08:43:52;50.28;;;16.17;;
45848;SDS011;31567;54.600;9.842;2024-02-15T08:47:32;45.65;;;15.70;;
45848;SDS011;31567;54.600;9.842;2024-02-15T08:51:11;44.83;;;14.85;;
45848;SDS011;31567;54.600;9.842;2024-02-15T08:54:51;47.65;;;15.23;;
45848;SDS011;31567;54.600;9.842;2024-02-15T08:58:31;37.78;;;14.57;;
45848;SDS011;31567;54.600;9.842;2024-02-15T09:02:11;40.20;;;14.07;;
45848;SDS011;31567;54.600;9.842;2024-02-15T09:05:50;35.67;;;13.75;;
45848;SDS011;31567;54.600;9.842;2024-02-15T09:09:30;36.45;;;13.23;;
45848;SDS011;31567;54.600;9.842;2024-02-15T09:13:10;36.80;;;13.50;;
45848;SDS011;31567;54.600;9.842;2024-02-15T09:16:50;27.83;;;12.75;;
45848;SDS011;31567;54.600;9.842;2024-02-15T09:20:29;27.20;;;13.52;;
45848;SDS011;31567;54.600;9.842;2024-02-15T09:24:10;29.73;;;13.95;;
45848;SDS011;31567;54.600;9.842;2024-02-15T09:27:50;25.95;;;13.55;;
45848;SDS011;31567;54.600;9.842;2024-02-15T09:31:30;21.98;;;13.25;;
45848;SDS011;31567;54.600;9.842;2024-02-15T09:35:10;28.40;;;13.98;;
45848;SDS011;31567;54.600;9.842;2024-02-15T09:38:51;23.83;;;13.35;;
45848;SDS011;31567;54.600;9.842;2024-02-15T09:42:30;27.25;;;14.20;;
45848;SDS011;31567;54.600;9.842;2024-02-15T09:46:10;24.35;;;12.95;;
45848;SDS011;31567;54.600;9.842;2024-02-15T09:49:51;27.20;;;14.10;;
45848;SDS011;31567;54.600;9.842;2024-02-15T09:53:31;29.58;;;14.13;;
45848;SDS011;31567;54.600;9.842;2024-02-15T09:57:11;30.83;;;13.80;;
45848;SDS011;31567;54.600;9.842;2024-02-15T10:00:50;29.50;;;13.50;;
45848;SDS011;31567;54.600;9.842;2024-02-15T10:04:30;39.20;;;14.00;;
45848;SDS011;31567;54.600;9.842;2024-02-15T10:08:13;33.60;;;13.77;;
45848;SDS011;31567;54.600;9.842;2024-02-15T10:11:55;32.50;;;13.48;;
45848;SDS011;31567;54.600;9.842;2024-02-15T10:15:37;137.10;;;15.50;;
45848;SDS011;31567;54.600;9.842;2024-02-15T10:19:17;41.90;;;14.50;;
45848;SDS011;31567;54.600;9.842;2024-02-15T10:23:13;30.77;;;15.13;;
45848;SDS011;31567;54.600;9.842;2024-02-15T10:27:02;29.50;;;14.80;;
45848;SDS011;31567;54.600;9.842;2024-02-15T10:30:43;35.45;;;16.05;;
45848;SDS011;31567;54.600;9.842;2024-02-15T10:34:24;34.55;;;15.82;;
45848;SDS011;31567;54.600;9.842;2024-02-15T10:38:08;38.92;;;16.83;;
45848;SDS011;31567;54.600;9.842;2024-02-15T10:45:28;32.40;;;16.52;;
45848;SDS011;31567;54.600;9.842;2024-02-15T10:49:10;28.77;;;15.25;;
45848;SDS011;31567;54.600;9.842;2024-02-15T10:52:56;30.52;;;15.25;;
45848;SDS011;31567;54.600;9.842;2024-02-15T10:56:37;28.27;;;14.90;;
45848;SDS011;31567;54.600;9.842;2024-02-15T11:00:25;27.10;;;14.80;;
45848;SDS011;31567;54.600;9.842;2024-02-15T11:04:11;32.38;;;15.85;;
45848;SDS011;31567;54.600;9.842;2024-02-15T11:07:53;28.80;;;15.23;;
45848;SDS011;31567;54.600;9.842;2024-02-15T11:11:34;30.38;;;15.55;;
45848;SDS011;31567;54.600;9.842;2024-02-15T11:19:56;26.58;;;14.40;;
45848;SDS011;31567;54.600;9.842;2024-02-15T11:23:26;27.83;;;13.93;;
45848;SDS011;31567;54.600;9.842;2024-02-15T11:27:06;27.60;;;14.50;;
45848;SDS011;31567;54.600;9.842;2024-02-15T11:30:53;24.88;;;13.40;;
45848;SDS011;31567;54.600;9.842;2024-02-15T11:34:42;23.17;;;13.10;;
45848;SDS011;31567;54.600;9.842;2024-02-15T11:38:28;20.80;;;12.02;;
45848;SDS011;31567;54.600;9.842;2024-02-15T11:46:13;20.25;;;11.20;;
45848;SDS011;31567;54.600;9.842;2024-02-15T11:49:53;20.08;;;10.80;;
45848;SDS011;31567;54.600;9.842;2024-02-15T11:53:33;19.33;;;9.80;;
45848;SDS011;31567;54.600;9.842;2024-02-15T11:57:13;22.90;;;11.05;;
45848;SDS011;31567;54.600;9.842;2024-02-15T12:01:01;15.95;;;10.05;;
45848;SDS011;31567;54.600;9.842;2024-02-15T12:04:59;17.13;;;9.20;;
45848;SDS011;31567;54.600;9.842;2024-02-15T12:08:57;21.33;;;10.52;;
45848;SDS011;31567;54.600;9.842;2024-02-15T12:12:55;23.98;;;11.60;;
45848;SDS011;31567;54.600;9.842;2024-02-15T12:17:03;21.85;;;12.32;;
45848;SDS011;31567;54.600;9.842;2024-02-15T12:21:06;19.90;;;12.15;;
45848;SDS011;31567;54.600;9.842;2024-02-15T12:24:55;21.27;;;11.85;;
45848;SDS011;31567;54.600;9.842;2024-02-15T12:28:35;18.15;;;11.25;;
45848;SDS011;31567;54.600;9.842;2024-02-15T12:32:22;17.85;;;10.50;;
45848;SDS011;31567;54.600;9.842;2024-02-15T12:36:05;14.48;;;9.43;;
45848;SDS011;31567;54.600;9.842;2024-02-15T12:39:46;15.95;;;10.45;;
45848;SDS011;31567;54.600;9.842;2024-02-15T12:43:28;16.35;;;9.30;;
45848;SDS011;31567;54.600;9.842;2024-02-15T12:47:07;14.35;;;8.85;;
45848;SDS011;31567;54.600;9.842;2024-02-15T12:50:47;14.32;;;9.32;;
45848;SDS011;31567;54.600;9.842;2024-02-15T12:54:27;13.50;;;8.77;;
45848;SDS011;31567;54.600;9.842;2024-02-15T12:58:09;13.38;;;8.48;;
45848;SDS011;31567;54.600;9.842;2024-02-15T13:01:54;12.45;;;8.73;;
45848;SDS011;31567;54.600;9.842;2024-02-15T13:05:33;12.63;;;8.43;;
45848;SDS011;31567;54.600;9.842;2024-02-15T13:09:13;13.52;;;8.25;;
45848;SDS011;31567;54.600;9.842;2024-02-15T13:12:53;9.43;;;7.38;;
45848;SDS011;31567;54.600;9.842;2024-02-15T13:16:34;11.68;;;8.70;;
45848;SDS011;31567;54.600;9.842;2024-02-15T13:20:14;15.10;;;8.68;;
45848;SDS011;31567;54.600;9.842;2024-02-15T13:23:54;10.30;;;8.05;;
45848;SDS011;31567;54.600;9.842;2024-02-15T13:27:33;11.27;;;8.00;;
45848;SDS011;31567;54.600;9.842;2024-02-15T13:31:13;8.90;;;7.45;;
45848;SDS011;31567;54.600;9.842;2024-02-15T13:34:53;10.70;;;8.20;;
45848;SDS011;31567;54.600;9.842;2024-02-15T13:38:38;12.40;;;8.60;;
45848;SDS011;31567;54.600;9.842;2024-02-15T13:42:18;12.02;;;9.18;;
45848;SDS011;31567;54.600;9.842;2024-02-15T13:45:57;13.00;;;9.25;;
45848;SDS011;31567;54.600;9.842;2024-02-15T13:49:39;13.43;;;9.80;;
45848;SDS011;31567;54.600;9.842;2024-02-15T13:53:18;16.83;;;10.63;;
45848;SDS011;31567;54.600;9.842;2024-02-15T13:56:58;14.35;;;9.90;;
45848;SDS011;31567;54.600;9.842;2024-02-15T14:00:41;14.82;;;9.90;;
45848;SDS011;31567;54.600;9.842;2024-02-15T14:04:23;13.57;;;10.20;;
45848;SDS011;31567;54.600;9.842;2024-02-15T14:08:03;13.68;;;9.52;;
45848;SDS011;31567;54.600;9.842;2024-02-15T14:11:48;13.65;;;10.38;;
45848;SDS011;31567;54.600;9.842;2024-02-15T14:15:28;13.20;;;10.60;;
45848;SDS011;31567;54.600;9.842;2024-02-15T14:19:08;21.63;;;12.02;;
45848;SDS011;31567;54.600;9.842;2024-02-15T14:22:48;14.70;;;11.07;;
45848;SDS011;31567;54.600;9.842;2024-02-15T14:26:34;19.93;;;12.03;;
45848;SDS011;31567;54.600;9.842;2024-02-15T14:30:14;15.52;;;11.38;;
45848;SDS011;31567;54.600;9.842;2024-02-15T14:34:12;14.10;;;10.77;;
45848;SDS011;31567;54.600;9.842;2024-02-15T14:37:51;16.25;;;11.77;;
45848;SDS011;31567;54.600;9.842;2024-02-15T14:41:31;14.80;;;9.68;;
45848;SDS011;31567;54.600;9.842;2024-02-15T14:45:11;15.60;;;10.70;;
45848;SDS011;31567;54.600;9.842;2024-02-15T14:48:51;13.93;;;10.35;;
45848;SDS011;31567;54.600;9.842;2024-02-15T14:52:30;13.20;;;9.13;;
45848;SDS011;31567;54.600;9.842;2024-02-15T14:56:10;11.65;;;8.52;;
45848;SDS011;31567;54.600;9.842;2024-02-15T14:59:49;12.48;;;9.38;;
45848;SDS011;31567;54.600;9.842;2024-02-15T15:03:32;13.10;;;9.82;;
45848;SDS011;31567;54.600;9.842;2024-02-15T15:07:12;10.45;;;8.45;;
45848;SDS011;31567;54.600;9.842;2024-02-15T15:11:10;11.88;;;8.85;;
45848;SDS011;31567;54.600;9.842;2024-02-15T15:15:09;10.70;;;8.32;;
45848;SDS011;31567;54.600;9.842;2024-02-15T15:18:51;11.70;;;8.60;;
45848;SDS011;31567;54.600;9.842;2024-02-15T15:22:31;10.38;;;8.60;;
45848;SDS011;31567;54.600;9.842;2024-02-15T15:26:18;11.30;;;8.73;;
45848;SDS011;31567;54.600;9.842;2024-02-15T15:29:58;12.27;;;8.80;;
45848;SDS011;31567;54.600;9.842;2024-02-15T15:33:39;10.68;;;8.68;;
45848;SDS011;31567;54.600;9.842;2024-02-15T15:37:18;12.25;;;9.73;;
45848;SDS011;31567;54.600;9.842;2024-02-15T15:41:01;11.68;;;8.98;;
45848;SDS011;31567;54.600;9.842;2024-02-15T15:44:42;12.00;;;9.15;;
45848;SDS011;31567;54.600;9.842;2024-02-15T15:48:22;12.05;;;9.57;;
45848;SDS011;31567;54.600;9.842;2024-02-15T15:52:02;12.00;;;9.85;;
45848;SDS011;31567;54.600;9.842;2024-02-15T15:55:43;13.95;;;9.30;;
45848;SDS011;31567;54.600;9.842;2024-02-15T15:59:22;12.02;;;9.43;;
45848;SDS011;31567;54.600;9.842;2024-02-15T16:03:02;11.10;;;9.57;;
45848;SDS011;31567;54.600;9.842;2024-02-15T16:06:43;14.73;;;10.02;;
45848;SDS011;31567;54.600;9.842;2024-02-15T16:10:23;13.93;;;10.07;;
45848;SDS011;31567;54.600;9.842;2024-02-15T16:14:07;13.07;;;10.27;;
45848;SDS011;31567;54.600;9.842;2024-02-15T16:17:50;14.38;;;10.00;;
45848;SDS011;31567;54.600;9.842;2024-02-15T16:21:30;12.75;;;10.45;;
45848;SDS011;31567;54.600;9.842;2024-02-15T16:25:09;13.88;;;11.23;;
45848;SDS011;31567;54.600;9.842;2024-02-15T16:28:49;16.25;;;11.07;;
45848;SDS011;31567;54.600;9.842;2024-02-15T16:32:29;16.52;;;12.15;;
45848;SDS011;31567;54.600;9.842;2024-02-15T16:36:10;16.30;;;11.55;;
45848;SDS011;31567;54.600;9.842;2024-02-15T16:39:50;17.10;;;12.00;;
45848;SDS011;31567;54.600;9.842;2024-02-15T16:43:30;14.73;;;11.80;;
45848;SDS011;31567;54.600;9.842;2024-02-15T16:47:10;16.17;;;12.55;;
45848;SDS011;31567;54.600;9.842;2024-02-15T16:50:49;17.27;;;13.60;;
45848;SDS011;31567;54.600;9.842;2024-02-15T16:54:30;16.27;;;13.23;;
45848;SDS011;31567;54.600;9.842;2024-02-15T16:58:10;19.98;;;13.77;;
45848;SDS011;31567;54.600;9.842;2024-02-15T17:01:49;20.17;;;13.70;;
45848;SDS011;31567;54.600;9.842;2024-02-15T17:05:31;17.80;;;13.50;;
45848;SDS011;31567;54.600;9.842;2024-02-15T17:09:14;19.73;;;14.82;;
45848;SDS011;31567;54.600;9.842;2024-02-15T17:12:54;19.42;;;14.68;;
45848;SDS011;31567;54.600;9.842;2024-02-15T17:16:34;18.55;;;13.98;;
45848;SDS011;31567;54.600;9.842;2024-02-15T17:20:14;20.65;;;14.90;;
45848;SDS011;31567;54.600;9.842;2024-02-15T17:23:53;21.95;;;16.00;;
45848;SDS011;31567;54.600;9.842;2024-02-15T17:27:34;19.98;;;15.35;;
45848;SDS011;31567;54.600;9.842;2024-02-15T17:31:17;22.40;;;16.80;;
45848;SDS011;31567;54.600;9.842;2024-02-15T17:34:56;20.55;;;16.05;;
45848;SDS011;31567;54.600;9.842;2024-02-15T17:38:38;21.35;;;17.10;;
45848;SDS011;31567;54.600;9.842;2024-02-15T17:42:18;23.33;;;17.90;;
45848;SDS011;31567;54.600;9.842;2024-02-15T17:45:58;22.95;;;17.52;;
45848;SDS011;31567;54.600;9.842;2024-02-15T17:49:38;23.95;;;18.15;;
45848;SDS011;31567;54.600;9.842;2024-02-15T17:53:17;26.02;;;19.48;;
45848;SDS011;31567;54.600;9.842;2024-02-15T17:56:57;27.10;;;18.23;;
45848;SDS011;31567;54.600;9.842;2024-02-15T18:00:38;25.48;;;19.50;;
45848;SDS011;31567;54.600;9.842;2024-02-15T18:04:20;25.75;;;18.98;;
45848;SDS011;31567;54.600;9.842;2024-02-15T18:07:59;32.45;;;21.58;;
45848;SDS011;31567;54.600;9.842;2024-02-15T18:11:39;31.90;;;21.70;;
45848;SDS011;31567;54.600;9.842;2024-02-15T18:15:18;32.60;;;22.13;;
45848;SDS011;31567;54.600;9.842;2024-02-15T18:19:08;35.63;;;23.20;;
45848;SDS011;31567;54.600;9.842;2024-02-15T18:22:48;35.97;;;24.35;;
45848;SDS011;31567;54.600;9.842;2024-02-15T18:26:28;37.85;;;24.05;;
45848;SDS011;31567;54.600;9.842;2024-02-15T18:30:08;45.13;;;26.33;;
45848;SDS011;31567;54.600;9.842;2024-02-15T18:33:48;39.78;;;24.92;;
45848;SDS011;31567;54.600;9.842;2024-02-15T18:37:33;38.08;;;24.65;;
45848;SDS011;31567;54.600;9.842;2024-02-15T18:41:13;42.20;;;25.85;;
45848;SDS011;31567;54.600;9.842;2024-02-15T18:44:53;35.78;;;23.85;;
45848;SDS011;31567;54.600;9.842;2024-02-15T18:48:32;39.70;;;25.33;;
45848;SDS011;31567;54.600;9.842;2024-02-15T18:52:12;38.22;;;25.20;;
45848;SDS011;31567;54.600;9.842;2024-02-15T18:55:52;43.47;;;24.88;;
45848;SDS011;31567;54.600;9.842;2024-02-15T18:59:34;38.13;;;25.15;;
45848;SDS011;31567;54.600;9.842;2024-02-15T19:03:14;46.88;;;26.95;;
45848;SDS011;31567;54.600;9.842;2024-02-15T19:06:53;46.88;;;26.23;;
45848;SDS011;31567;54.600;9.842;2024-02-15T19:10:34;61.40;;;29.23;;
45848;SDS011;31567;54.600;9.842;2024-02-15T19:14:14;50.33;;;28.42;;
45848;SDS011;31567;54.600;9.842;2024-02-15T19:17:54;51.50;;;28.73;;
45848;SDS011;31567;54.600;9.842;2024-02-15T19:21:35;55.20;;;28.15;;
45848;SDS011;31567;54.600;9.842;2024-02-15T19:25:15;51.35;;;29.08;;
45848;SDS011;31567;54.600;9.842;2024-02-15T19:28:56;51.55;;;29.02;;
45848;SDS011;31567;54.600;9.842;2024-02-15T19:32:36;54.80;;;30.05;;
45848;SDS011;31567;54.600;9.842;2024-02-15T19:36:16;48.58;;;28.33;;
45848;SDS011;31567;54.600;9.842;2024-02-15T19:39:56;49.38;;;28.30;;
45848;SDS011;31567;54.600;9.842;2024-02-15T19:43:36;54.92;;;30.67;;
45848;SDS011;31567;54.600;9.842;2024-02-15T19:47:16;52.58;;;29.95;;
45848;SDS011;31567;54.600;9.842;2024-02-15T19:50:57;47.92;;;29.40;;
45848;SDS011;31567;54.600;9.842;2024-02-15T19:54:36;47.10;;;27.83;;
45848;SDS011;31567;54.600;9.842;2024-02-15T19:58:16;42.42;;;27.40;;
45848;SDS011;31567;54.600;9.842;2024-02-15T20:01:56;44.00;;;28.60;;
45848;SDS011;31567;54.600;9.842;2024-02-15T20:05:35;46.60;;;28.52;;
45848;SDS011;31567;54.600;9.842;2024-02-15T20:09:15;47.55;;;28.55;;
45848;SDS011;31567;54.600;9.842;2024-02-15T20:12:54;46.15;;;29.67;;
45848;SDS011;31567;54.600;9.842;2024-02-15T20:16:34;50.97;;;31.13;;
45848;SDS011;31567;54.600;9.842;2024-02-15T20:20:14;50.75;;;30.75;;
45848;SDS011;31567;54.600;9.842;2024-02-15T20:23:55;50.38;;;31.92;;
45848;SDS011;31567;54.600;9.842;2024-02-15T20:27:37;54.72;;;31.77;;
45848;SDS011;31567;54.600;9.842;2024-02-15T20:31:17;49.88;;;31.13;;
45848;SDS011;31567;54.600;9.842;2024-02-15T20:34:56;53.28;;;31.70;;
45848;SDS011;31567;54.600;9.842;2024-02-15T20:38:37;50.45;;;32.83;;
45848;SDS011;31567;54.600;9.842;2024-02-15T20:42:19;51.55;;;32.63;;
45848;SDS011;31567;54.600;9.842;2024-02-15T20:46:00;52.60;;;31.95;;
45848;SDS011;31567;54.600;9.842;2024-02-15T20:49:40;56.60;;;33.40;;
45848;SDS011;31567;54.600;9.842;2024-02-15T20:53:20;59.17;;;32.92;;
45848;SDS011;31567;54.600;9.842;2024-02-15T20:57:00;60.40;;;34.38;;
45848;SDS011;31567;54.600;9.842;2024-02-15T21:00:39;55.22;;;32.03;;
45848;SDS011;31567;54.600;9.842;2024-02-15T21:04:20;67.72;;;35.80;;
45848;SDS011;31567;54.600;9.842;2024-02-15T21:07:59;58.10;;;33.15;;
45848;SDS011;31567;54.600;9.842;2024-02-15T21:11:39;60.20;;;33.75;;
45848;SDS011;31567;54.600;9.842;2024-02-15T21:15:19;62.30;;;34.13;;
45848;SDS011;31567;54.600;9.842;2024-02-15T21:18:59;64.70;;;35.55;;
45848;SDS011;31567;54.600;9.842;2024-02-15T21:22:43;62.65;;;35.08;;
45848;SDS011;31567;54.600;9.842;2024-02-15T21:26:23;59.40;;;36.00;;
45848;SDS011;31567;54.600;9.842;2024-02-15T21:30:04;66.97;;;37.65;;
45848;SDS011;31567;54.600;9.842;2024-02-15T21:33:44;67.05;;;37.50;;
45848;SDS011;31567;54.600;9.842;2024-02-15T21:37:24;64.03;;;37.05;;
45848;SDS011;31567;54.600;9.842;2024-02-15T21:41:04;69.82;;;37.90;;
45848;SDS011;31567;54.600;9.842;2024-02-15T21:44:49;62.88;;;36.20;;
45848;SDS011;31567;54.600;9.842;2024-02-15T21:48:29;69.32;;;38.33;;